sensor_id;sensor_type;location;lat;lon;timestamp;temperature;humidity
2212;DHT22;48849;48.758;9.158;2023-04-12T00:01:51;12.80;99.90
2212;DHT22;48849;48.758;9.158;2023-04-12T00:04:18;13.20;99.90
2212;DHT22;48849;48.758;9.158;2023-04-12T00:06:47;12.90;99.90
2212;DHT22;48849;48.758;9.158;2023-04-12T00:09:14;12.80;99.90
2212;DHT22;48849;48.758;9.158;2023-04-12T00:11:41;12.80;99.90
2212;DHT22;48849;48.758;9.158;2023-04-12T00:14:08;12.80;99.90
2212;DHT22;48849;48.758;9.158;2023-04-12T00:16:37;13.10;99.90
2212;DHT22;48849;48.758;9.158;2023-04-12T00:19:04;12.80;99.90
2212;DHT22;48849;48.758;9.158;2023-04-12T00:21:32;13.40;99.90
2212;DHT22;48849;48.758;9.158;2023-04-12T00:23:58;12.80;99.90
2212;DHT22;48849;48.758;9.158;2023-04-12T00:26:25;12.70;99.90
2212;DHT22;48849;48.758;9.158;2023-04-12T00:28:52;12.80;99.90
2212;DHT22;48849;48.758;9.158;2023-04-12T00:31:19;12.80;99.90
2212;DHT22;48849;48.758;9.158;2023-04-12T00:33:47;13.30;99.90
2212;DHT22;48849;48.758;9.158;2023-04-12T00:36:14;13.20;99.90
2212;DHT22;48849;48.758;9.158;2023-04-12T00:38:41;12.80;99.90
2212;DHT22;48849;48.758;9.158;2023-04-12T00:41:10;12.70;99.90
2212;DHT22;48849;48.758;9.158;2023-04-12T00:43:38;12.70;99.90
2212;DHT22;48849;48.758;9.158;2023-04-12T00:46:06;12.70;99.90
2212;DHT22;48849;48.758;9.158;2023-04-12T00:48:34;12.70;99.90
2212;DHT22;48849;48.758;9.158;2023-04-12T00:51:06;12.70;99.90
2212;DHT22;48849;48.758;9.158;2023-04-12T00:53:34;12.60;99.90
2212;DHT22;48849;48.758;9.158;2023-04-12T00:56:02;12.60;99.90
2212;DHT22;48849;48.758;9.158;2023-04-12T00:58:29;12.50;99.90
2212;DHT22;48849;48.758;9.158;2023-04-12T01:00:57;12.80;99.90
2212;DHT22;48849;48.758;9.158;2023-04-12T01:03:33;12.50;99.90
2212;DHT22;48849;48.758;9.158;2023-04-12T01:06:18;12.40;99.90
2212;DHT22;48849;48.758;9.158;2023-04-12T01:09:12;12.40;99.90
2212;DHT22;48849;48.758;9.158;2023-04-12T01:11:59;12.30;99.90
2212;DHT22;48849;48.758;9.158;2023-04-12T01:17:31;12.20;99.90
2212;DHT22;48849;48.758;9.158;2023-04-12T01:34:36;12.00;99.90
2212;DHT22;48849;48.758;9.158;2023-04-12T01:37:28;12.10;99.90
2212;DHT22;48849;48.758;9.158;2023-04-12T01:39:56;12.00;99.90
2212;DHT22;48849;48.758;9.158;2023-04-12T01:42:23;12.00;99.90
2212;DHT22;48849;48.758;9.158;2023-04-12T02:07:14;11.90;99.90
2212;DHT22;48849;48.758;9.158;2023-04-12T08:44:33;12.70;99.90
2212;DHT22;48849;48.758;9.158;2023-04-12T08:47:10;12.70;99.90
2212;DHT22;48849;48.758;9.158;2023-04-12T08:49:57;12.70;99.90
2212;DHT22;48849;48.758;9.158;2023-04-12T08:52:38;12.70;99.90
2212;DHT22;48849;48.758;9.158;2023-04-12T08:55:09;12.80;99.90
2212;DHT22;48849;48.758;9.158;2023-04-12T08:57:41;12.80;99.90
2212;DHT22;48849;48.758;9.158;2023-04-12T09:00:24;12.80;99.90
2212;DHT22;48849;48.758;9.158;2023-04-12T09:02:55;12.80;99.90
2212;DHT22;48849;48.758;9.158;2023-04-12T09:05:31;12.90;99.90
2212;DHT22;48849;48.758;9.158;2023-04-12T09:28:36;13.00;99.90
2212;DHT22;48849;48.758;9.158;2023-04-12T09:31:28;13.10;99.90
2212;DHT22;48849;48.758;9.158;2023-04-12T09:34:11;12.50;99.90
2212;DHT22;48849;48.758;9.158;2023-04-12T09:37:15;13.20;99.90
2212;DHT22;48849;48.758;9.158;2023-04-12T09:40:00;13.30;99.90
2212;DHT22;48849;48.758;9.158;2023-04-12T09:42:57;13.20;99.90
2212;DHT22;48849;48.758;9.158;2023-04-12T09:45:39;13.50;99.90
2212;DHT22;48849;48.758;9.158;2023-04-12T09:48:23;13.30;99.90
2212;DHT22;48849;48.758;9.158;2023-04-12T09:51:07;13.30;99.90
2212;DHT22;48849;48.758;9.158;2023-04-12T09:53:55;13.40;99.90
2212;DHT22;48849;48.758;9.158;2023-04-12T09:56:58;13.40;99.90
2212;DHT22;48849;48.758;9.158;2023-04-12T10:02:51;13.60;99.90
2212;DHT22;48849;48.758;9.158;2023-04-12T10:05:40;13.30;99.90
2212;DHT22;48849;48.758;9.158;2023-04-12T10:08:29;13.50;99.90
2212;DHT22;48849;48.758;9.158;2023-04-12T10:11:18;13.50;99.90
2212;DHT22;48849;48.758;9.158;2023-04-12T10:14:22;13.50;99.90
2212;DHT22;48849;48.758;9.158;2023-04-12T10:17:14;13.60;99.90
2212;DHT22;48849;48.758;9.158;2023-04-12T10:19:59;13.70;99.90
2212;DHT22;48849;48.758;9.158;2023-04-12T10:22:44;13.70;99.90
2212;DHT22;48849;48.758;9.158;2023-04-12T10:25:37;13.70;99.90
2212;DHT22;48849;48.758;9.158;2023-04-12T10:28:50;13.70;99.90
2212;DHT22;48849;48.758;9.158;2023-04-12T10:31:49;15.10;99.90
2212;DHT22;48849;48.758;9.158;2023-04-12T10:34:32;13.80;99.90
2212;DHT22;48849;48.758;9.158;2023-04-12T10:37:08;14.50;99.90
2212;DHT22;48849;48.758;9.158;2023-04-12T10:39:43;13.90;99.90
2212;DHT22;48849;48.758;9.158;2023-04-12T10:42:21;14.00;99.90
2212;DHT22;48849;48.758;9.158;2023-04-12T10:48:49;14.10;99.90
2212;DHT22;48849;48.758;9.158;2023-04-12T10:51:26;14.10;99.90
2212;DHT22;48849;48.758;9.158;2023-04-12T10:54:41;14.00;99.90
2212;DHT22;48849;48.758;9.158;2023-04-12T10:58:53;14.20;99.90
2212;DHT22;48849;48.758;9.158;2023-04-12T11:04:06;14.30;99.90
2212;DHT22;48849;48.758;9.158;2023-04-12T11:06:57;14.40;99.90
2212;DHT22;48849;48.758;9.158;2023-04-12T11:09:41;15.30;99.90
2212;DHT22;48849;48.758;9.158;2023-04-12T11:22:24;14.50;99.90
2212;DHT22;48849;48.758;9.158;2023-04-12T11:25:09;15.70;99.90
2212;DHT22;48849;48.758;9.158;2023-04-12T11:28:09;14.60;99.90
2212;DHT22;48849;48.758;9.158;2023-04-12T11:31:02;14.40;99.90
2212;DHT22;48849;48.758;9.158;2023-04-12T11:33:57;14.70;99.90
2212;DHT22;48849;48.758;9.158;2023-04-12T11:36:37;14.60;99.90
2212;DHT22;48849;48.758;9.158;2023-04-12T11:39:39;14.70;99.90
2212;DHT22;48849;48.758;9.158;2023-04-12T11:42:34;14.70;99.90
2212;DHT22;48849;48.758;9.158;2023-04-12T11:45:11;14.50;99.90
2212;DHT22;48849;48.758;9.158;2023-04-12T12:40:09;15.70;99.90
2212;DHT22;48849;48.758;9.158;2023-04-12T12:42:47;15.80;99.90
2212;DHT22;48849;48.758;9.158;2023-04-12T12:45:16;15.90;99.90
2212;DHT22;48849;48.758;9.158;2023-04-12T12:47:48;16.00;99.90
2212;DHT22;48849;48.758;9.158;2023-04-12T12:50:16;16.20;99.90
2212;DHT22;48849;48.758;9.158;2023-04-12T12:52:44;16.30;99.90
2212;DHT22;48849;48.758;9.158;2023-04-12T12:55:22;16.40;99.90
2212;DHT22;48849;48.758;9.158;2023-04-12T12:58:07;16.40;99.90
2212;DHT22;48849;48.758;9.158;2023-04-12T13:00:35;16.40;99.90
2212;DHT22;48849;48.758;9.158;2023-04-12T13:03:10;16.30;99.90
2212;DHT22;48849;48.758;9.158;2023-04-12T13:05:44;16.30;99.90
2212;DHT22;48849;48.758;9.158;2023-04-12T13:08:13;16.20;99.90
2212;DHT22;48849;48.758;9.158;2023-04-12T13:10:51;16.20;99.90
2212;DHT22;48849;48.758;9.158;2023-04-12T13:13:21;16.20;99.90
2212;DHT22;48849;48.758;9.158;2023-04-12T13:15:50;16.20;99.90
2212;DHT22;48849;48.758;9.158;2023-04-12T13:18:25;16.20;99.90
2212;DHT22;48849;48.758;9.158;2023-04-12T13:20:52;16.20;99.90
2212;DHT22;48849;48.758;9.158;2023-04-12T13:23:22;16.20;99.90
2212;DHT22;48849;48.758;9.158;2023-04-12T13:25:57;16.20;99.90
2212;DHT22;48849;48.758;9.158;2023-04-12T13:28:29;16.10;99.90
2212;DHT22;48849;48.758;9.158;2023-04-12T13:30:56;16.10;99.90
2212;DHT22;48849;48.758;9.158;2023-04-12T13:33:23;16.10;99.90
2212;DHT22;48849;48.758;9.158;2023-04-12T13:35:53;16.00;99.90
2212;DHT22;48849;48.758;9.158;2023-04-12T13:38:32;15.90;99.90
2212;DHT22;48849;48.758;9.158;2023-04-12T13:41:04;15.90;99.90
2212;DHT22;48849;48.758;9.158;2023-04-12T13:43:33;16.00;99.90
2212;DHT22;48849;48.758;9.158;2023-04-12T13:46:04;16.00;99.90
2212;DHT22;48849;48.758;9.158;2023-04-12T13:48:31;16.10;99.90
2212;DHT22;48849;48.758;9.158;2023-04-12T13:50:58;16.10;99.90
2212;DHT22;48849;48.758;9.158;2023-04-12T13:53:28;16.10;99.90
2212;DHT22;48849;48.758;9.158;2023-04-12T13:55:56;16.10;99.90
2212;DHT22;48849;48.758;9.158;2023-04-12T13:58:29;16.10;99.90
2212;DHT22;48849;48.758;9.158;2023-04-12T14:01:01;16.10;99.90
2212;DHT22;48849;48.758;9.158;2023-04-12T14:03:32;16.10;99.90
2212;DHT22;48849;48.758;9.158;2023-04-12T14:05:59;16.10;99.90
2212;DHT22;48849;48.758;9.158;2023-04-12T14:08:36;16.00;99.90
2212;DHT22;48849;48.758;9.158;2023-04-12T14:11:10;16.00;99.90
2212;DHT22;48849;48.758;9.158;2023-04-12T14:13:41;16.00;99.90
2212;DHT22;48849;48.758;9.158;2023-04-12T14:16:20;16.00;99.90
2212;DHT22;48849;48.758;9.158;2023-04-12T14:18:53;16.00;99.90
2212;DHT22;48849;48.758;9.158;2023-04-12T14:21:28;16.10;99.90
2212;DHT22;48849;48.758;9.158;2023-04-12T14:24:03;16.10;99.90
2212;DHT22;48849;48.758;9.158;2023-04-12T14:26:44;16.00;99.90
2212;DHT22;48849;48.758;9.158;2023-04-12T14:29:17;16.10;99.90
2212;DHT22;48849;48.758;9.158;2023-04-12T14:31:52;16.10;99.90
2212;DHT22;48849;48.758;9.158;2023-04-12T14:34:22;16.20;99.90
2212;DHT22;48849;48.758;9.158;2023-04-12T14:39:48;16.20;99.90
2212;DHT22;48849;48.758;9.158;2023-04-12T14:42:23;16.20;99.90
2212;DHT22;48849;48.758;9.158;2023-04-12T14:45:01;16.20;99.90
2212;DHT22;48849;48.758;9.158;2023-04-12T14:47:43;16.20;99.90
2212;DHT22;48849;48.758;9.158;2023-04-12T14:50:22;16.20;99.90
2212;DHT22;48849;48.758;9.158;2023-04-12T14:52:59;16.20;99.90
2212;DHT22;48849;48.758;9.158;2023-04-12T14:55:30;16.20;99.90
2212;DHT22;48849;48.758;9.158;2023-04-12T14:57:58;16.30;99.90
2212;DHT22;48849;48.758;9.158;2023-04-12T15:00:57;16.30;99.90
2212;DHT22;48849;48.758;9.158;2023-04-12T15:04:34;16.20;99.90
2212;DHT22;48849;48.758;9.158;2023-04-12T15:10:52;16.20;99.90
2212;DHT22;48849;48.758;9.158;2023-04-12T15:13:17;16.10;99.90
2212;DHT22;48849;48.758;9.158;2023-04-12T15:33:30;15.60;99.90
2212;DHT22;48849;48.758;9.158;2023-04-12T15:35:59;15.40;99.90
2212;DHT22;48849;48.758;9.158;2023-04-12T15:38:39;15.30;99.90
2212;DHT22;48849;48.758;9.158;2023-04-12T15:41:16;15.20;99.90
2212;DHT22;48849;48.758;9.158;2023-04-12T15:44:03;15.10;99.90
2212;DHT22;48849;48.758;9.158;2023-04-12T15:46:31;15.00;99.90
2212;DHT22;48849;48.758;9.158;2023-04-12T15:49:19;15.00;99.90
2212;DHT22;48849;48.758;9.158;2023-04-12T15:51:48;14.90;99.90
2212;DHT22;48849;48.758;9.158;2023-04-12T15:54:22;14.80;99.90
2212;DHT22;48849;48.758;9.158;2023-04-12T15:56:53;14.70;99.90
2212;DHT22;48849;48.758;9.158;2023-04-12T15:59:24;14.70;99.90
2212;DHT22;48849;48.758;9.158;2023-04-12T16:01:55;14.60;99.90
2212;DHT22;48849;48.758;9.158;2023-04-12T16:04:26;14.60;99.90
2212;DHT22;48849;48.758;9.158;2023-04-12T16:06:56;14.60;99.90
2212;DHT22;48849;48.758;9.158;2023-04-12T16:09:26;14.50;99.90
2212;DHT22;48849;48.758;9.158;2023-04-12T16:11:59;14.50;99.90
2212;DHT22;48849;48.758;9.158;2023-04-12T16:14:32;14.50;99.90
2212;DHT22;48849;48.758;9.158;2023-04-12T16:17:12;14.50;99.90
2212;DHT22;48849;48.758;9.158;2023-04-12T16:19:43;14.50;99.90
2212;DHT22;48849;48.758;9.158;2023-04-12T16:22:13;14.40;99.90
2212;DHT22;48849;48.758;9.158;2023-04-12T16:24:44;14.40;99.90
2212;DHT22;48849;48.758;9.158;2023-04-12T16:27:16;14.40;99.90
2212;DHT22;48849;48.758;9.158;2023-04-12T16:29:46;14.50;99.90
2212;DHT22;48849;48.758;9.158;2023-04-12T16:32:13;14.50;99.90
2212;DHT22;48849;48.758;9.158;2023-04-12T16:34:42;14.50;99.90
2212;DHT22;48849;48.758;9.158;2023-04-12T16:37:13;14.60;99.90
2212;DHT22;48849;48.758;9.158;2023-04-12T16:39:46;14.50;99.90
2212;DHT22;48849;48.758;9.158;2023-04-12T16:42:13;14.60;99.90
2212;DHT22;48849;48.758;9.158;2023-04-12T16:44:41;14.60;99.90
2212;DHT22;48849;48.758;9.158;2023-04-12T16:47:08;14.60;99.90
2212;DHT22;48849;48.758;9.158;2023-04-12T16:49:35;14.60;99.90
2212;DHT22;48849;48.758;9.158;2023-04-12T16:52:06;14.50;99.90
2212;DHT22;48849;48.758;9.158;2023-04-12T16:54:34;14.50;99.90
2212;DHT22;48849;48.758;9.158;2023-04-12T16:57:01;14.50;99.90
2212;DHT22;48849;48.758;9.158;2023-04-12T16:59:30;14.50;99.90
2212;DHT22;48849;48.758;9.158;2023-04-12T17:02:01;14.50;99.90
2212;DHT22;48849;48.758;9.158;2023-04-12T17:04:38;14.40;99.90
2212;DHT22;48849;48.758;9.158;2023-04-12T17:07:08;14.50;99.90
2212;DHT22;48849;48.758;9.158;2023-04-12T17:09:38;14.40;99.90
2212;DHT22;48849;48.758;9.158;2023-04-12T17:12:13;14.40;99.90
2212;DHT22;48849;48.758;9.158;2023-04-12T17:14:45;14.40;99.90
2212;DHT22;48849;48.758;9.158;2023-04-12T17:17:15;14.20;99.90
2212;DHT22;48849;48.758;9.158;2023-04-12T17:19:42;14.30;99.90
2212;DHT22;48849;48.758;9.158;2023-04-12T17:22:11;14.30;99.90
2212;DHT22;48849;48.758;9.158;2023-04-12T17:24:43;14.30;99.90
2212;DHT22;48849;48.758;9.158;2023-04-12T17:27:10;14.30;99.90
2212;DHT22;48849;48.758;9.158;2023-04-12T17:29:37;14.30;99.90
2212;DHT22;48849;48.758;9.158;2023-04-12T17:32:39;14.20;99.90
2212;DHT22;48849;48.758;9.158;2023-04-12T17:35:12;14.30;99.90
2212;DHT22;48849;48.758;9.158;2023-04-12T17:37:51;14.30;99.90
2212;DHT22;48849;48.758;9.158;2023-04-12T17:40:18;14.30;99.90
2212;DHT22;48849;48.758;9.158;2023-04-12T17:42:45;14.30;99.90
2212;DHT22;48849;48.758;9.158;2023-04-12T17:45:11;14.30;99.90
2212;DHT22;48849;48.758;9.158;2023-04-12T17:47:39;14.40;99.90
2212;DHT22;48849;48.758;9.158;2023-04-12T17:50:07;14.30;99.90
2212;DHT22;48849;48.758;9.158;2023-04-12T17:52:35;14.30;99.90
2212;DHT22;48849;48.758;9.158;2023-04-12T17:55:05;14.30;99.90
2212;DHT22;48849;48.758;9.158;2023-04-12T17:57:33;14.30;99.90
2212;DHT22;48849;48.758;9.158;2023-04-12T18:00:00;14.30;99.90
2212;DHT22;48849;48.758;9.158;2023-04-12T18:02:27;14.30;99.90
2212;DHT22;48849;48.758;9.158;2023-04-12T18:04:54;14.20;99.90
2212;DHT22;48849;48.758;9.158;2023-04-12T18:07:21;14.20;99.90
2212;DHT22;48849;48.758;9.158;2023-04-12T18:09:48;14.20;99.90
2212;DHT22;48849;48.758;9.158;2023-04-12T18:12:17;14.20;99.90
2212;DHT22;48849;48.758;9.158;2023-04-12T18:14:45;14.20;99.90
2212;DHT22;48849;48.758;9.158;2023-04-12T18:17:12;14.10;99.90
2212;DHT22;48849;48.758;9.158;2023-04-12T18:19:39;14.10;99.90
2212;DHT22;48849;48.758;9.158;2023-04-12T18:22:06;14.10;99.90
2212;DHT22;48849;48.758;9.158;2023-04-12T18:24:33;14.10;99.90
2212;DHT22;48849;48.758;9.158;2023-04-12T18:27:01;14.10;99.90
2212;DHT22;48849;48.758;9.158;2023-04-12T18:29:31;14.00;99.90
2212;DHT22;48849;48.758;9.158;2023-04-12T18:31:58;14.00;99.90
2212;DHT22;48849;48.758;9.158;2023-04-12T18:34:25;14.10;99.90
2212;DHT22;48849;48.758;9.158;2023-04-12T18:36:52;14.00;99.90
2212;DHT22;48849;48.758;9.158;2023-04-12T18:53:05;13.80;99.90
2212;DHT22;48849;48.758;9.158;2023-04-12T18:55:32;13.70;99.90
2212;DHT22;48849;48.758;9.158;2023-04-12T18:57:59;13.80;99.90
2212;DHT22;48849;48.758;9.158;2023-04-12T19:00:26;13.80;99.90
2212;DHT22;48849;48.758;9.158;2023-04-12T19:02:57;14.00;99.90
2212;DHT22;48849;48.758;9.158;2023-04-12T19:05:24;13.90;99.90
2212;DHT22;48849;48.758;9.158;2023-04-12T19:07:52;13.90;99.90
2212;DHT22;48849;48.758;9.158;2023-04-12T19:10:21;13.80;99.90
2212;DHT22;48849;48.758;9.158;2023-04-12T19:13:12;13.80;99.90
2212;DHT22;48849;48.758;9.158;2023-04-12T19:15:56;13.80;99.90
2212;DHT22;48849;48.758;9.158;2023-04-12T19:21:58;13.70;99.90
2212;DHT22;48849;48.758;9.158;2023-04-12T19:24:47;13.70;99.90
2212;DHT22;48849;48.758;9.158;2023-04-12T19:27:29;13.70;99.90
2212;DHT22;48849;48.758;9.158;2023-04-12T19:30:08;13.70;99.90
2212;DHT22;48849;48.758;9.158;2023-04-12T19:36:08;13.70;99.90
2212;DHT22;48849;48.758;9.158;2023-04-12T19:38:40;13.60;99.90
2212;DHT22;48849;48.758;9.158;2023-04-12T19:41:50;13.60;99.90
2212;DHT22;48849;48.758;9.158;2023-04-12T19:44:52;13.60;99.90
2212;DHT22;48849;48.758;9.158;2023-04-12T19:47:19;13.60;99.90
2212;DHT22;48849;48.758;9.158;2023-04-12T19:49:46;13.60;99.90
2212;DHT22;48849;48.758;9.158;2023-04-12T19:52:13;13.60;99.90
2212;DHT22;48849;48.758;9.158;2023-04-12T19:54:40;13.60;99.90
2212;DHT22;48849;48.758;9.158;2023-04-12T19:57:17;13.60;99.90
2212;DHT22;48849;48.758;9.158;2023-04-12T19:59:49;13.60;99.90
2212;DHT22;48849;48.758;9.158;2023-04-12T20:02:19;13.60;99.90
2212;DHT22;48849;48.758;9.158;2023-04-12T20:04:51;13.50;99.90
2212;DHT22;48849;48.758;9.158;2023-04-12T20:21:11;13.50;99.90
2212;DHT22;48849;48.758;9.158;2023-04-12T20:24:06;13.50;99.90
2212;DHT22;48849;48.758;9.158;2023-04-12T20:32:20;13.50;99.90
2212;DHT22;48849;48.758;9.158;2023-04-12T20:38:32;13.50;99.90
2212;DHT22;48849;48.758;9.158;2023-04-12T20:44:38;13.40;99.90
2212;DHT22;48849;48.758;9.158;2023-04-12T20:47:27;13.40;99.90
2212;DHT22;48849;48.758;9.158;2023-04-12T21:09:25;12.90;99.90
2212;DHT22;48849;48.758;9.158;2023-04-12T21:11:54;12.80;99.90
2212;DHT22;48849;48.758;9.158;2023-04-12T21:14:38;12.70;99.90
2212;DHT22;48849;48.758;9.158;2023-04-12T21:17:15;12.60;99.90
2212;DHT22;48849;48.758;9.158;2023-04-12T21:19:51;12.70;99.90
2212;DHT22;48849;48.758;9.158;2023-04-12T21:22:32;12.60;99.90
2212;DHT22;48849;48.758;9.158;2023-04-12T21:25:09;12.50;99.90
2212;DHT22;48849;48.758;9.158;2023-04-12T21:27:48;12.50;99.90
2212;DHT22;48849;48.758;9.158;2023-04-12T21:30:18;12.40;99.90
2212;DHT22;48849;48.758;9.158;2023-04-12T21:32:57;12.40;99.90
2212;DHT22;48849;48.758;9.158;2023-04-12T21:35:35;12.40;99.90
2212;DHT22;48849;48.758;9.158;2023-04-12T21:38:02;12.40;99.90
2212;DHT22;48849;48.758;9.158;2023-04-12T21:40:36;12.40;99.90
2212;DHT22;48849;48.758;9.158;2023-04-12T21:43:03;12.30;99.90
2212;DHT22;48849;48.758;9.158;2023-04-12T21:45:37;12.20;99.90
2212;DHT22;48849;48.758;9.158;2023-04-12T21:48:22;12.20;99.90
2212;DHT22;48849;48.758;9.158;2023-04-12T21:50:53;12.20;99.90
2212;DHT22;48849;48.758;9.158;2023-04-12T21:53:20;12.10;99.90
2212;DHT22;48849;48.758;9.158;2023-04-12T21:55:49;12.10;99.90
2212;DHT22;48849;48.758;9.158;2023-04-12T21:58:25;12.10;99.90
2212;DHT22;48849;48.758;9.158;2023-04-12T22:00:54;12.10;99.90
2212;DHT22;48849;48.758;9.158;2023-04-12T22:03:24;12.10;99.90
2212;DHT22;48849;48.758;9.158;2023-04-12T22:05:50;12.10;99.90
2212;DHT22;48849;48.758;9.158;2023-04-12T22:08:20;12.20;99.90
2212;DHT22;48849;48.758;9.158;2023-04-12T22:10:59;12.20;99.90
2212;DHT22;48849;48.758;9.158;2023-04-12T22:13:27;12.10;99.90
2212;DHT22;48849;48.758;9.158;2023-04-12T22:15:56;12.10;99.90
2212;DHT22;48849;48.758;9.158;2023-04-12T22:18:47;12.10;99.90
2212;DHT22;48849;48.758;9.158;2023-04-12T22:21:16;12.10;99.90
2212;DHT22;48849;48.758;9.158;2023-04-12T22:23:47;12.10;99.90
2212;DHT22;48849;48.758;9.158;2023-04-12T22:26:16;12.10;99.90
2212;DHT22;48849;48.758;9.158;2023-04-12T22:28:43;12.10;99.90
2212;DHT22;48849;48.758;9.158;2023-04-12T22:31:13;12.10;99.90
2212;DHT22;48849;48.758;9.158;2023-04-12T22:33:41;12.10;99.90
2212;DHT22;48849;48.758;9.158;2023-04-12T22:36:12;12.10;99.90
2212;DHT22;48849;48.758;9.158;2023-04-12T22:38:42;12.10;99.90
2212;DHT22;48849;48.758;9.158;2023-04-12T22:41:16;12.10;99.90
2212;DHT22;48849;48.758;9.158;2023-04-12T22:43:44;12.10;99.90
2212;DHT22;48849;48.758;9.158;2023-04-12T22:46:16;12.00;99.90
2212;DHT22;48849;48.758;9.158;2023-04-12T22:48:49;12.00;99.90
2212;DHT22;48849;48.758;9.158;2023-04-12T22:51:20;12.00;99.90
2212;DHT22;48849;48.758;9.158;2023-04-12T22:53:57;12.00;99.90
2212;DHT22;48849;48.758;9.158;2023-04-12T22:56:34;12.10;99.90
2212;DHT22;48849;48.758;9.158;2023-04-12T22:59:08;11.90;99.90
2212;DHT22;48849;48.758;9.158;2023-04-12T23:01:40;11.90;99.90
2212;DHT22;48849;48.758;9.158;2023-04-12T23:04:57;11.80;99.90
2212;DHT22;48849;48.758;9.158;2023-04-12T23:07:29;11.90;99.90
2212;DHT22;48849;48.758;9.158;2023-04-12T23:09:56;11.90;99.90
2212;DHT22;48849;48.758;9.158;2023-04-12T23:12:31;11.80;99.90
2212;DHT22;48849;48.758;9.158;2023-04-12T23:14:58;11.80;99.90
2212;DHT22;48849;48.758;9.158;2023-04-12T23:17:25;11.80;99.90
2212;DHT22;48849;48.758;9.158;2023-04-12T23:19:54;11.80;99.90
2212;DHT22;48849;48.758;9.158;2023-04-12T23:22:34;11.80;99.90
2212;DHT22;48849;48.758;9.158;2023-04-12T23:25:21;11.80;99.90
2212;DHT22;48849;48.758;9.158;2023-04-12T23:28:04;11.80;99.90
2212;DHT22;48849;48.758;9.158;2023-04-12T23:30:35;11.80;99.90
2212;DHT22;48849;48.758;9.158;2023-04-12T23:33:04;11.70;99.90
2212;DHT22;48849;48.758;9.158;2023-04-12T23:35:34;11.70;99.90
2212;DHT22;48849;48.758;9.158;2023-04-12T23:38:03;11.80;99.90
2212;DHT22;48849;48.758;9.158;2023-04-12T23:40:31;11.70;99.90
2212;DHT22;48849;48.758;9.158;2023-04-12T23:43:02;11.70;99.90
2212;DHT22;48849;48.758;9.158;2023-04-12T23:45:33;11.70;99.90
2212;DHT22;48849;48.758;9.158;2023-04-12T23:48:01;11.70;99.90
2212;DHT22;48849;48.758;9.158;2023-04-12T23:50:28;11.70;99.90
2212;DHT22;48849;48.758;9.158;2023-04-12T23:52:57;11.70;99.90
2212;DHT22;48849;48.758;9.158;2023-04-12T23:55:24;11.60;99.90
2212;DHT22;48849;48.758;9.158;2023-04-12T23:57:52;11.60;99.90
